Time;durP1;ratioP1;P1;durP2;ratioP2;P2;SDS_P1;SDS_P2;PMS_P1;PMS_P2;Temp;Humidity;BMP_temperature;BMP_pressure;BME280_temperature;BME280_humidity;BME280_pressure;Samples;Min_cycle;Max_cycle;Signal;HPM_P1;HPM_P2
2022/01/17 00:00:07;;;;;;;13.60;4.80;;;7.50;99.90;;;;;;5010175;28;20037;-43
2022/01/17 00:02:32;;;;;;;12.00;4.65;;;7.50;99.90;;;;;;5010131;28;20029;-42
2022/01/17 00:04:58;;;;;;;10.57;4.72;;;7.50;99.90;;;;;;5007078;28;20037;-43
2022/01/17 00:07:29;;;;;;;12.35;5.22;;;7.50;99.90;;;;;;5010196;28;20034;-43
2022/01/17 00:09:54;;;;;;;10.45;5.30;;;7.50;99.90;;;;;;5009612;28;20041;-42
2022/01/17 00:12:20;;;;;;;11.07;5.20;;;7.50;99.90;;;;;;5009828;28;20022;-43
2022/01/17 00:14:46;;;;;;;15.43;5.40;;;7.50;99.90;;;;;;5009162;28;20497;-43
2022/01/17 00:19:44;;;;;;;11.50;4.32;;;7.50;99.90;;;;;;5009223;28;20109;-43
2022/01/17 00:22:11;;;;;;;10.38;4.53;;;7.50;99.90;;;;;;5009951;28;20025;-42
2022/01/17 00:24:37;;;;;;;8.45;4.63;;;7.50;99.90;;;;;;5009055;28;20478;-44
2022/01/17 00:27:02;;;;;;;13.70;4.88;;;7.50;99.90;;;;;;5008961;28;20022;-43
2022/01/17 00:29:29;;;;;;;12.02;4.28;;;7.50;99.90;;;;;;5009590;28;20445;-43
2022/01/17 00:31:54;;;;;;;11.15;4.55;;;7.50;99.90;;;;;;5008666;28;20081;-42
2022/01/17 00:34:20;;;;;;;15.02;4.70;;;7.50;99.90;;;;;;5009780;28;20064;-43
2022/01/17 00:36:45;;;;;;;11.05;4.88;;;7.50;99.90;;;;;;5008567;28;20034;-42
2022/01/17 00:39:11;;;;;;;14.00;4.50;;;7.50;99.90;;;;;;5008791;28;20034;-43
2022/01/17 00:41:37;;;;;;;13.48;4.47;;;7.50;99.90;;;;;;5009757;28;20084;-43
2022/01/17 00:44:04;;;;;;;15.85;4.55;;;7.50;99.90;;;;;;5009593;28;20449;-43
2022/01/17 00:46:30;;;;;;;12.68;4.35;;;7.50;99.90;;;;;;5008463;28;20029;-43
2022/01/17 00:48:56;;;;;;;13.48;4.55;;;7.50;99.90;;;;;;5009422;28;20032;-42
2022/01/17 00:51:21;;;;;;;11.23;3.88;;;7.50;99.90;;;;;;5009163;28;20034;-42
2022/01/17 00:53:48;;;;;;;10.80;4.00;;;7.50;99.90;;;;;;5008109;28;20026;-42
2022/01/17 00:56:14;;;;;;;11.32;3.67;;;7.50;99.90;;;;;;5009451;28;20037;-44
2022/01/17 00:58:40;;;;;;;11.68;3.97;;;7.50;99.90;;;;;;5008805;28;20535;-42
2022/01/17 01:01:06;;;;;;;15.30;4.20;;;7.50;99.90;;;;;;5008052;28;20108;-43
2022/01/17 01:03:31;;;;;;;11.40;3.85;;;7.50;99.90;;;;;;5008938;28;20465;-43
2022/01/17 01:05:57;;;;;;;12.70;3.75;;;7.50;99.90;;;;;;5008709;28;20604;-43
2022/01/17 01:08:22;;;;;;;9.40;3.80;;;7.50;99.90;;;;;;5008603;28;20079;-43
2022/01/17 01:10:48;;;;;;;13.02;4.07;;;7.50;99.90;;;;;;5008263;28;20034;-43
2022/01/17 01:13:21;;;;;;;13.65;4.38;;;7.50;99.90;;;;;;5008548;28;20057;-44
2022/01/17 01:16:08;;;;;;;11.23;3.50;;;7.50;99.90;;;;;;5007986;28;20018;-43
2022/01/17 01:29:04;;;;;;;12.95;3.08;;;7.50;99.90;;;;;;5007532;28;20041;-42
2022/01/17 01:31:43;;;;;;;12.63;2.90;;;7.40;99.90;;;;;;5008111;28;20034;-43
2022/01/17 01:34:10;;;;;;;15.65;3.05;;;7.40;99.90;;;;;;5008698;28;20049;-44
2022/01/17 01:36:36;;;;;;;9.82;2.60;;;7.40;99.90;;;;;;5007556;28;20034;-43
2022/01/17 01:39:04;;;;;;;14.38;2.95;;;7.40;99.90;;;;;;5007839;28;20033;-43
2022/01/17 01:41:33;;;;;;;9.80;2.63;;;7.40;99.90;;;;;;5008352;28;20034;-42
2022/01/17 01:43:59;;;;;;;10.82;2.30;;;7.40;99.90;;;;;;5007148;28;20373;-42
2022/01/17 01:46:25;;;;;;;12.70;2.60;;;7.40;99.90;;;;;;5008181;28;20030;-43
2022/01/17 01:48:50;;;;;;;10.40;2.78;;;7.40;99.90;;;;;;5008141;28;20030;-43
2022/01/17 01:51:20;;;;;;;12.18;2.42;;;7.40;99.90;;;;;;5007207;28;20038;-42
2022/01/17 01:53:45;;;;;;;8.32;1.80;;;7.40;99.90;;;;;;5006825;28;20530;-43
2022/01/17 01:56:11;;;;;;;8.90;1.98;;;7.40;99.90;;;;;;5007765;28;20034;-42
2022/01/17 01:58:39;;;;;;;9.45;1.83;;;7.30;99.90;;;;;;5007912;28;20073;-43
2022/01/17 02:01:05;;;;;;;6.75;1.90;;;7.40;99.90;;;;;;5007904;28;20015;-43
2022/01/17 02:03:30;;;;;;;11.75;3.08;;;7.40;99.90;;;;;;5006573;28;20018;-41
2022/01/17 02:05:56;;;;;;;7.30;2.00;;;7.30;99.90;;;;;;5007485;28;20128;-42
2022/01/17 02:08:21;;;;;;;9.27;2.15;;;7.30;99.90;;;;;;5007525;28;20030;-42
2022/01/17 02:10:47;;;;;;;11.07;2.05;;;7.40;99.90;;;;;;5007032;28;20092;-42
2022/01/17 02:13:12;;;;;;;12.13;1.95;;;7.30;99.90;;;;;;5007520;28;20444;-43
2022/01/17 02:15:39;;;;;;;7.65;1.70;;;7.30;99.90;;;;;;5007575;28;20026;-43
2022/01/17 02:18:07;;;;;;;11.18;2.20;;;7.30;99.90;;;;;;5006788;28;20088;-42
2022/01/17 02:20:45;;;;;;;13.75;2.05;;;7.20;99.90;;;;;;5007463;28;20018;-42
2022/01/17 02:23:13;;;;;;;7.88;1.88;;;7.20;99.90;;;;;;5008065;28;20121;-43
2022/01/17 02:25:39;;;;;;;7.72;2.28;;;7.10;99.90;;;;;;5006888;28;20355;-44
2022/01/17 02:28:05;;;;;;;8.07;1.80;;;7.10;99.90;;;;;;5006814;28;20522;-42
2022/01/17 02:30:34;;;;;;;15.18;2.40;;;7.10;99.90;;;;;;5007715;28;20434;-43
2022/01/17 02:33:00;;;;;;;8.80;1.52;;;7.10;99.90;;;;;;5006404;28;20029;-43
2022/01/17 02:35:27;;;;;;;10.35;2.20;;;7.00;99.90;;;;;;5007100;28;20029;-43
2022/01/17 02:37:53;;;;;;;12.00;2.15;;;7.00;99.90;;;;;;5007836;28;20057;-43
2022/01/17 02:40:23;;;;;;;8.65;2.00;;;7.00;99.90;;;;;;5006419;28;20053;-42
2022/01/17 02:43:03;;;;;;;8.65;2.22;;;7.10;99.90;;;;;;5007544;28;20338;-42
2022/01/17 02:45:34;;;;;;;7.68;1.30;;;7.10;99.90;;;;;;5006863;28;20018;-42
2022/01/17 02:48:09;;;;;;;9.10;1.90;;;7.10;99.90;;;;;;5007122;28;20022;-43
2022/01/17 02:50:36;;;;;;;9.48;2.15;;;7.10;99.90;;;;;;5006656;28;20519;-42
2022/01/17 02:53:04;;;;;;;8.65;1.98;;;7.10;99.90;;;;;;5007023;28;20038;-41
2022/01/17 02:55:30;;;;;;;6.28;1.77;;;7.10;99.90;;;;;;5006736;28;20050;-43
2022/01/17 02:57:56;;;;;;;6.65;1.50;;;7.10;99.90;;;;;;5007386;28;20025;-44
2022/01/17 03:00:22;;;;;;;11.80;1.77;;;7.10;99.90;;;;;;5006560;28;20386;-43
2022/01/17 03:02:50;;;;;;;8.23;1.92;;;7.20;99.90;;;;;;5006382;28;20065;-43
2022/01/17 03:05:17;;;;;;;8.68;1.67;;;7.10;99.90;;;;;;5007369;28;20053;-43
2022/01/17 03:07:43;;;;;;;6.68;1.50;;;7.00;99.90;;;;;;5006351;28;20144;-42
2022/01/17 03:10:18;;;;;;;8.63;1.58;;;7.10;99.90;;;;;;5007197;28;20030;-43
2022/01/17 03:12:43;;;;;;;9.07;1.75;;;7.00;99.90;;;;;;5006973;28;20041;-43
2022/01/17 03:15:09;;;;;;;10.13;1.70;;;7.00;99.90;;;;;;5005990;28;20026;-43
2022/01/17 03:17:35;;;;;;;10.23;1.88;;;7.00;99.90;;;;;;5010343;28;20029;-43
2022/01/17 03:20:00;;;;;;;10.95;2.28;;;6.90;99.90;;;;;;5010703;28;20579;-43
2022/01/17 03:22:26;;;;;;;9.25;1.85;;;6.90;99.90;;;;;;5010189;28;20383;-44
2022/01/17 03:24:51;;;;;;;7.20;1.67;;;6.90;99.90;;;;;;5010909;28;20121;-43
2022/01/17 03:27:18;;;;;;;5.65;1.35;;;6.80;99.90;;;;;;5010676;28;20029;-43
2022/01/17 03:29:44;;;;;;;9.68;1.98;;;6.70;99.90;;;;;;5010182;28;20057;-43
2022/01/17 03:32:09;;;;;;;8.23;1.90;;;6.70;99.90;;;;;;5010385;28;20068;-44
2022/01/17 03:34:36;;;;;;;7.57;1.75;;;6.60;99.90;;;;;;5010672;28;20096;-41
2022/01/17 03:37:02;;;;;;;6.88;2.10;;;6.50;99.90;;;;;;5010355;28;20030;-43
2022/01/17 03:39:27;;;;;;;8.40;1.77;;;6.50;99.90;;;;;;5010595;28;20469;-43
2022/01/17 03:41:53;;;;;;;9.30;1.98;;;6.40;99.90;;;;;;5009698;28;20022;-42
2022/01/17 03:44:18;;;;;;;8.85;2.22;;;6.40;99.90;;;;;;5010347;28;20763;-43
2022/01/17 03:46:44;;;;;;;10.02;2.20;;;6.30;99.90;;;;;;5010385;28;20057;-44
2022/01/17 03:49:09;;;;;;;8.30;1.73;;;6.20;99.90;;;;;;5009572;28;20112;-43
2022/01/17 03:51:38;;;;;;;9.32;1.83;;;6.20;99.90;;;;;;5010000;28;20030;-42
2022/01/17 03:54:06;;;;;;;10.02;1.60;;;6.20;99.90;;;;;;5010455;28;20053;-42
2022/01/17 03:56:32;;;;;;;10.25;2.10;;;6.10;99.90;;;;;;5009244;28;20018;-43
2022/01/17 03:58:58;;;;;;;11.30;1.83;;;6.10;99.90;;;;;;5009805;28;20037;-42
2022/01/17 04:01:23;;;;;;;10.27;1.60;;;6.10;99.90;;;;;;5010290;28;20029;-43
2022/01/17 04:03:49;;;;;;;8.90;1.50;;;6.00;99.90;;;;;;5009326;28;20030;-43
2022/01/17 04:06:15;;;;;;;14.43;2.45;;;6.00;99.90;;;;;;5010208;28;20026;-43
2022/01/17 04:08:41;;;;;;;11.75;1.77;;;6.00;99.90;;;;;;5009578;28;20029;-42
2022/01/17 04:11:07;;;;;;;11.13;2.60;;;5.90;99.90;;;;;;5006551;28;20049;-42
2022/01/17 04:13:34;;;;;;;6.38;1.33;;;5.90;99.90;;;;;;5009398;28;20108;-42
2022/01/17 04:16:00;;;;;;;13.18;1.70;;;5.90;99.90;;;;;;5010207;28;20033;-43
2022/01/17 04:18:25;;;;;;;7.40;1.52;;;5.80;99.90;;;;;;5008896;28;20378;-43
2022/01/17 04:20:52;;;;;;;8.82;1.77;;;5.80;99.90;;;;;;5009767;28;20041;-43
2022/01/17 04:23:18;;;;;;;8.20;1.83;;;5.70;99.90;;;;;;5010175;28;20500;-42
2022/01/17 04:25:44;;;;;;;8.65;1.42;;;5.70;99.90;;;;;;5008912;28;20062;-42
2022/01/17 04:28:12;;;;;;;9.95;1.92;;;5.70;99.90;;;;;;5008381;28;20111;-43
2022/01/17 04:30:39;;;;;;;8.63;2.30;;;5.80;99.90;;;;;;5009576;28;20029;-42
2022/01/17 04:33:06;;;;;;;9.48;1.50;;;5.80;99.90;;;;;;5008708;28;20504;-42
2022/01/17 04:35:33;;;;;;;8.38;1.48;;;5.90;99.90;;;;;;5009570;28;20028;-43
2022/01/17 04:38:04;;;;;;;11.50;1.90;;;5.90;99.90;;;;;;5008054;28;20568;-43
2022/01/17 04:40:37;;;;;;;5.45;1.55;;;5.90;99.90;;;;;;5009276;28;20036;-43
2022/01/17 04:43:17;;;;;;;9.82;1.60;;;6.00;99.90;;;;;;5009184;28;20018;-42
2022/01/17 04:45:43;;;;;;;11.43;2.08;;;6.00;99.90;;;;;;5008584;28;20034;-42
2022/01/17 04:48:09;;;;;;;8.02;1.70;;;6.10;99.90;;;;;;5009174;28;20032;-43
2022/01/17 04:50:35;;;;;;;5.93;1.50;;;6.10;99.90;;;;;;5009449;28;20370;-43
2022/01/17 04:53:01;;;;;;;13.20;2.47;;;6.10;99.90;;;;;;5008106;28;20026;-43
2022/01/17 04:55:28;;;;;;;6.47;1.55;;;6.20;99.90;;;;;;5008838;28;20046;-43
2022/01/17 04:57:56;;;;;;;7.68;1.73;;;6.20;99.90;;;;;;5009046;28;20092;-43
2022/01/17 05:00:24;;;;;;;9.57;2.05;;;6.10;99.90;;;;;;5008576;28;20029;-43
2022/01/17 05:02:50;;;;;;;9.70;1.58;;;6.10;99.90;;;;;;5009129;28;20099;-43
2022/01/17 05:05:17;;;;;;;9.60;1.90;;;6.10;99.90;;;;;;5008822;28;20022;-43
2022/01/17 05:07:42;;;;;;;12.18;2.40;;;6.20;99.90;;;;;;5008019;28;20030;-44
2022/01/17 05:10:11;;;;;;;7.97;1.80;;;6.20;99.90;;;;;;5008949;28;20084;-44
2022/01/17 05:12:37;;;;;;;11.57;2.20;;;6.20;99.90;;;;;;5008652;28;20056;-43
2022/01/17 05:15:06;;;;;;;6.63;2.10;;;6.10;99.90;;;;;;5007862;28;20468;-43
2022/01/17 05:19:58;;;;;;;12.43;2.95;;;6.00;99.90;;;;;;5002919;28;20022;-43
2022/01/17 05:22:32;;;;;;;8.00;2.33;;;6.00;99.90;;;;;;5007928;28;20021;-43
2022/01/17 05:24:59;;;;;;;10.38;2.30;;;5.80;99.90;;;;;;5008566;28;20026;-44
2022/01/17 05:27:24;;;;;;;9.50;1.75;;;5.80;99.90;;;;;;5007649;28;20057;-43
2022/01/17 05:29:50;;;;;;;7.57;1.80;;;5.70;99.90;;;;;;5007715;28;20108;-43
2022/01/17 05:32:16;;;;;;;9.57;1.90;;;5.70;99.90;;;;;;5008954;28;20033;-43
2022/01/17 05:34:42;;;;;;;7.50;2.13;;;5.60;99.90;;;;;;5007143;28;20484;-41
2022/01/17 05:37:09;;;;;;;9.65;1.70;;;5.60;99.90;;;;;;5008364;28;20030;-43
2022/01/17 05:39:36;;;;;;;8.65;2.10;;;5.50;99.90;;;;;;5007533;28;20021;-43
2022/01/17 05:42:02;;;;;;;6.75;2.00;;;5.50;99.90;;;;;;4996287;28;20084;-44
2022/01/17 05:44:28;;;;;;;8.73;2.15;;;5.40;99.90;;;;;;5008167;28;20096;-42
2022/01/17 05:46:53;;;;;;;7.25;2.50;;;5.40;99.90;;;;;;5008569;28;20485;-43
2022/01/17 05:49:19;;;;;;;3.70;1.58;;;5.30;99.90;;;;;;5007941;28;20457;-43
2022/01/17 05:51:44;;;;;;;8.73;2.30;;;5.30;99.90;;;;;;5007921;28;20038;-41
2022/01/17 05:54:10;;;;;;;9.05;2.33;;;5.30;99.90;;;;;;5008040;28;20069;-42
2022/01/17 05:56:35;;;;;;;9.82;2.47;;;5.30;99.90;;;;;;5007298;28;20065;-43
2022/01/17 05:59:01;;;;;;;8.30;2.78;;;5.30;99.90;;;;;;5007827;28;20109;-42
2022/01/17 06:01:26;;;;;;;12.85;4.57;;;5.30;99.90;;;;;;5008261;28;20037;-42
2022/01/17 06:03:52;;;;;;;10.70;3.45;;;5.30;99.90;;;;;;5007062;28;20073;-43
2022/01/17 06:06:18;;;;;;;11.70;3.38;;;5.30;99.90;;;;;;5007743;28;20556;-43
2022/01/17 06:08:43;;;;;;;14.90;3.78;;;5.20;99.90;;;;;;5008084;28;20022;-43
2022/01/17 06:11:09;;;;;;;10.43;3.15;;;5.20;99.90;;;;;;5007000;28;20045;-43
2022/01/17 06:13:38;;;;;;;11.88;3.35;;;5.20;99.90;;;;;;5007802;28;20057;-44
2022/01/17 06:16:03;;;;;;;8.27;3.80;;;5.20;99.90;;;;;;5007878;28;20029;-42
2022/01/17 06:18:29;;;;;;;10.95;3.95;;;5.30;99.90;;;;;;5006871;28;20121;-43
2022/01/17 06:20:55;;;;;;;13.35;4.18;;;5.30;99.90;;;;;;5007712;28;20488;-44
2022/01/17 06:23:21;;;;;;;14.82;4.90;;;5.40;99.90;;;;;;5008144;28;20084;-44
2022/01/17 06:25:46;;;;;;;16.50;5.53;;;5.40;99.90;;;;;;5006573;28;20035;-42
2022/01/17 06:28:12;;;;;;;16.58;6.82;;;5.40;99.90;;;;;;5007629;28;20030;-42
2022/01/17 06:30:41;;;;;;;14.30;6.03;;;5.40;99.90;;;;;;5007053;28;20044;-42
2022/01/17 06:33:06;;;;;;;11.82;5.13;;;5.40;99.90;;;;;;5007031;28;20029;-43
2022/01/17 06:35:32;;;;;;;14.73;5.72;;;5.40;99.90;;;;;;5007137;28;20037;-43
2022/01/17 06:37:57;;;;;;;13.75;6.03;;;5.40;99.90;;;;;;5006490;28;20064;-43
2022/01/17 06:40:23;;;;;;;12.48;6.15;;;5.40;99.90;;;;;;5007311;28;20414;-42
2022/01/17 06:42:52;;;;;;;15.82;6.18;;;5.30;99.90;;;;;;5007053;28;20022;-43
2022/01/17 06:45:18;;;;;;;14.23;5.80;;;5.30;99.90;;;;;;5007086;28;20452;-43
2022/01/17 06:47:44;;;;;;;14.90;6.82;;;5.30;99.90;;;;;;5007075;28;20033;-43
2022/01/17 06:50:10;;;;;;;11.55;6.35;;;5.30;99.90;;;;;;5006906;28;20073;-43
2022/01/17 06:52:37;;;;;;;11.45;6.32;;;5.30;99.90;;;;;;5006477;28;20030;-43
2022/01/17 06:55:03;;;;;;;10.18;6.18;;;5.20;99.90;;;;;;5000397;28;20493;-42
2022/01/17 06:57:31;;;;;;;16.58;7.57;;;5.20;99.90;;;;;;4992689;28;20092;-43
2022/01/17 06:59:57;;;;;;;17.25;8.30;;;5.20;99.90;;;;;;5004412;28;20042;-43
2022/01/17 07:02:23;;;;;;;14.15;7.45;;;5.30;99.90;;;;;;5005868;28;20108;-45
2022/01/17 07:04:48;;;;;;;16.75;8.57;;;5.30;99.90;;;;;;4995264;28;20056;-42
2022/01/17 07:07:14;;;;;;;20.15;8.57;;;5.40;99.90;;;;;;5006181;28;20319;-44
2022/01/17 07:09:39;;;;;;;17.08;8.20;;;5.50;99.90;;;;;;5005551;28;20022;-43
2022/01/17 07:12:06;;;;;;;19.63;9.60;;;5.60;99.90;;;;;;5006686;28;20052;-43
2022/01/17 07:14:31;;;;;;;18.98;8.70;;;5.60;99.90;;;;;;5005266;28;20026;-43
2022/01/17 07:16:57;;;;;;;21.20;9.65;;;5.70;99.90;;;;;;5006132;28;20042;-45
2022/01/17 07:19:24;;;;;;;17.85;10.05;;;5.80;99.90;;;;;;5004355;28;20026;-42
2022/01/17 07:21:50;;;;;;;22.23;10.77;;;5.80;99.90;;;;;;5005975;28;20029;-43
2022/01/17 07:24:16;;;;;;;23.77;11.48;;;5.80;99.90;;;;;;5007013;28;20107;-43
2022/01/17 07:26:42;;;;;;;19.88;9.93;;;5.90;99.90;;;;;;5006538;28;20037;-43
2022/01/17 07:29:10;;;;;;;21.13;11.43;;;5.90;99.90;;;;;;5006327;28;20034;-42
2022/01/17 07:31:37;;;;;;;18.50;10.73;;;5.90;99.90;;;;;;5006500;28;20060;-43
2022/01/17 07:34:04;;;;;;;16.65;10.93;;;5.90;99.90;;;;;;5000742;28;20026;-42
2022/01/17 07:36:30;;;;;;;25.25;11.82;;;6.00;99.90;;;;;;4998563;28;20026;-42
2022/01/17 07:38:56;;;;;;;23.08;12.10;;;6.00;99.90;;;;;;4995042;28;20022;-43
2022/01/17 07:41:22;;;;;;;19.75;11.90;;;6.00;99.90;;;;;;5006310;28;20022;-43
2022/01/17 07:43:49;;;;;;;21.33;11.90;;;6.00;99.90;;;;;;5006076;28;20030;-43
2022/01/17 07:46:23;;;;;;;27.55;13.15;;;6.00;99.90;;;;;;5006963;28;20038;-44
2022/01/17 07:49:50;;;;;;;20.52;11.80;;;6.00;99.90;;;;;;5005871;28;20397;-42
2022/01/17 07:52:11;;;;;;;20.05;11.13;;;6.10;99.90;;;;;;4989389;28;20474;-41
2022/01/17 07:54:43;;;;;;;23.13;11.27;;;6.10;99.90;;;;;;5006425;28;20123;-43
2022/01/17 07:57:09;;;;;;;26.90;13.73;;;6.10;99.90;;;;;;5005704;28;20034;-42
2022/01/17 07:59:34;;;;;;;18.15;12.63;;;6.20;99.90;;;;;;5002420;28;20265;-45
2022/01/17 08:02:00;;;;;;;22.58;12.13;;;6.20;99.90;;;;;;5005503;28;20564;-43
2022/01/17 08:04:26;;;;;;;21.80;11.93;;;6.20;99.90;;;;;;5008930;28;20022;-43
2022/01/17 08:06:51;;;;;;;21.02;12.13;;;6.30;99.90;;;;;;5009261;28;20021;-43
2022/01/17 08:09:21;;;;;;;22.00;11.63;;;6.30;99.90;;;;;;5008340;28;20118;-43
2022/01/17 08:11:49;;;;;;;30.48;14.80;;;6.40;99.90;;;;;;5002359;28;20084;-43
2022/01/17 08:14:15;;;;;;;23.70;14.00;;;6.30;99.90;;;;;;5009019;28;20417;-43
2022/01/17 08:16:40;;;;;;;24.25;14.00;;;6.40;99.90;;;;;;5000105;28;20030;-43
2022/01/17 08:19:06;;;;;;;22.63;12.93;;;6.40;99.90;;;;;;5008074;28;20033;-42
2022/01/17 08:21:32;;;;;;;25.42;13.63;;;6.40;99.90;;;;;;5008203;28;20180;-43
2022/01/17 08:23:59;;;;;;;26.85;14.20;;;6.40;99.90;;;;;;5008564;28;20028;-43
2022/01/17 08:26:25;;;;;;;21.52;13.25;;;6.40;99.90;;;;;;5008404;28;20046;-44
2022/01/17 08:28:50;;;;;;;29.40;13.77;;;6.40;99.90;;;;;;5008986;28;20030;-42
2022/01/17 08:31:19;;;;;;;28.80;14.52;;;6.40;99.90;;;;;;5007730;28;20092;-43
2022/01/17 08:33:45;;;;;;;21.05;11.25;;;6.30;99.90;;;;;;5008559;28;20018;-43
2022/01/17 08:36:11;;;;;;;24.95;12.73;;;6.30;99.90;;;;;;5008765;28;20065;-43
2022/01/17 08:38:38;;;;;;;18.55;11.35;;;6.30;99.90;;;;;;5008210;28;20109;-44
2022/01/17 08:41:03;;;;;;;25.10;11.38;;;6.30;99.90;;;;;;5007988;28;20030;-43
2022/01/17 08:43:29;;;;;;;21.73;11.60;;;6.40;99.90;;;;;;5008342;28;20385;-44
2022/01/17 08:45:55;;;;;;;23.13;11.77;;;6.40;99.90;;;;;;5007393;28;20669;-42
2022/01/17 08:48:21;;;;;;;20.00;10.95;;;6.50;99.90;;;;;;5008943;28;20033;-42
2022/01/17 08:50:51;;;;;;;24.05;11.55;;;6.50;99.90;;;;;;5007506;28;20030;-42
2022/01/17 08:53:17;;;;;;;24.70;11.13;;;6.60;99.90;;;;;;5007461;28;20030;-43
2022/01/17 08:55:44;;;;;;;29.25;11.15;;;6.60;99.90;;;;;;5008439;28;20046;-43
2022/01/17 08:58:12;;;;;;;21.33;9.68;;;6.70;99.90;;;;;;5004170;28;20034;-44
2022/01/17 09:00:37;;;;;;;20.35;9.38;;;6.70;99.90;;;;;;5008050;28;20071;-42
2022/01/17 09:03:03;;;;;;;23.52;9.98;;;6.70;99.90;;;;;;5007903;28;20022;-42
2022/01/17 09:05:31;;;;;;;22.05;9.82;;;6.80;99.90;;;;;;5007272;28;20037;-43
2022/01/17 09:07:59;;;;;;;19.92;9.73;;;6.80;99.90;;;;;;5007979;28;20041;-44
2022/01/17 09:10:25;;;;;;;19.92;9.35;;;6.80;99.90;;;;;;5007660;28;20060;-44
2022/01/17 09:12:51;;;;;;;13.50;8.18;;;6.90;99.90;;;;;;5007032;28;20508;-44
2022/01/17 09:15:18;;;;;;;16.60;8.90;;;6.90;99.90;;;;;;5007858;28;20022;-43
2022/01/17 09:17:44;;;;;;;17.67;8.60;;;6.90;99.90;;;;;;5007984;28;20018;-44
2022/01/17 09:20:10;;;;;;;17.88;7.72;;;6.90;99.90;;;;;;5007333;28;20044;-43
2022/01/17 09:22:36;;;;;;;13.90;7.53;;;7.00;99.90;;;;;;5005217;28;20095;-44
2022/01/17 09:25:05;;;;;;;18.13;7.82;;;7.00;99.90;;;;;;5007673;28;20582;-43
2022/01/17 09:27:31;;;;;;;20.08;8.38;;;7.00;99.90;;;;;;5006819;28;20014;-42
2022/01/17 09:29:56;;;;;;;16.95;7.80;;;7.00;99.90;;;;;;5008127;28;20029;-43
2022/01/17 09:32:22;;;;;;;19.75;7.50;;;7.10;99.90;;;;;;5007167;28;20085;-43
2022/01/17 09:34:47;;;;;;;18.30;9.15;;;7.10;99.90;;;;;;5006233;28;20022;-43
2022/01/17 09:37:13;;;;;;;18.02;6.68;;;7.10;99.90;;;;;;5007998;28;20065;-43
2022/01/17 09:39:42;;;;;;;17.65;7.05;;;7.10;99.90;;;;;;5007347;28;20055;-43
2022/01/17 09:42:08;;;;;;;18.17;6.90;;;7.20;99.90;;;;;;5006918;28;20022;-42
2022/01/17 09:44:34;;;;;;;18.17;7.22;;;7.20;99.90;;;;;;4999017;28;20025;-43
2022/01/17 09:47:05;;;;;;;12.50;6.53;;;7.20;99.90;;;;;;4987705;28;20030;-43
2022/01/17 09:49:37;;;;;;;21.52;7.63;;;7.30;99.90;;;;;;5005035;28;20081;-44
2022/01/17 09:52:34;;;;;;;19.55;7.03;;;7.30;99.90;;;;;;5006972;28;20042;-43
2022/01/17 09:55:09;;;;;;;15.57;6.95;;;7.30;99.90;;;;;;5006066;28;20125;-43
2022/01/17 09:57:39;;;;;;;19.88;7.00;;;7.40;99.90;;;;;;5005988;28;20037;-42
2022/01/17 10:00:07;;;;;;;20.17;6.72;;;7.40;99.90;;;;;;5005845;28;20022;-44
2022/01/17 10:02:32;;;;;;;15.25;6.18;;;7.50;99.90;;;;;;5006523;28;20026;-43
2022/01/17 10:05:02;;;;;;;17.85;6.25;;;7.50;99.90;;;;;;5006733;28;20026;-44
2022/01/17 10:07:50;;;;;;;20.27;5.97;;;7.50;99.90;;;;;;5007338;28;20756;-42
2022/01/17 10:10:16;;;;;;;16.77;6.63;;;7.60;99.90;;;;;;5006295;28;20121;-43
2022/01/17 10:12:41;;;;;;;15.75;5.05;;;7.60;99.90;;;;;;5006803;28;20140;-43
2022/01/17 10:15:12;;;;;;;18.23;5.80;;;7.60;99.90;;;;;;5006629;28;20122;-43
2022/01/17 10:17:56;;;;;;;17.13;5.78;;;7.60;99.90;;;;;;4987014;28;20030;-42
2022/01/17 10:20:21;;;;;;;22.55;6.97;;;7.60;99.90;;;;;;5004193;28;20345;-43
2022/01/17 10:23:05;;;;;;;14.13;4.88;;;7.60;99.90;;;;;;5005792;28;20476;-42
2022/01/17 10:36:55;;;;;;;14.85;5.07;;;7.80;99.90;;;;;;5004136;28;20029;-44
2022/01/17 10:39:21;;;;;;;17.35;4.90;;;7.80;99.90;;;;;;5006368;28;20523;-43
2022/01/17 10:41:47;;;;;;;19.75;5.43;;;7.80;99.90;;;;;;5006538;28;20599;-42
2022/01/17 10:44:36;;;;;;;12.63;4.30;;;7.90;99.90;;;;;;5005641;28;20026;-43
2022/01/17 10:47:21;;;;;;;12.00;4.03;;;7.90;99.90;;;;;;5004519;28;20473;-44
2022/01/17 10:49:53;;;;;;;12.85;4.10;;;8.00;99.90;;;;;;5005963;28;20056;-44
2022/01/17 10:52:40;;;;;;;16.02;4.32;;;8.00;99.90;;;;;;5005712;28;20038;-43
2022/01/17 10:55:08;;;;;;;15.02;4.53;;;8.00;99.90;;;;;;5005825;28;20108;-44
2022/01/17 10:57:43;;;;;;;13.35;4.07;;;8.10;99.90;;;;;;4995197;28;20022;-42
2022/01/17 11:00:15;;;;;;;16.30;5.65;;;8.10;99.90;;;;;;5005654;28;20555;-43
2022/01/17 11:02:45;;;;;;;17.27;4.37;;;8.10;99.90;;;;;;5005986;28;20397;-43
2022/01/17 11:05:15;;;;;;;15.13;4.07;;;8.20;99.90;;;;;;5005465;28;20140;-42
2022/01/17 11:07:46;;;;;;;18.02;4.18;;;8.20;99.90;;;;;;5006312;28;20076;-43
2022/01/17 11:10:24;;;;;;;17.90;4.57;;;8.20;99.90;;;;;;5006509;28;20089;-44
2022/01/17 11:12:52;;;;;;;17.85;4.10;;;8.20;99.90;;;;;;5003004;28;20061;-43
2022/01/17 11:15:19;;;;;;;15.02;3.95;;;8.20;99.90;;;;;;5005756;28;20438;-42
2022/01/17 11:17:51;;;;;;;21.38;4.53;;;8.30;99.90;;;;;;5006417;28;20026;-43
2022/01/17 11:20:19;;;;;;;14.00;3.72;;;8.30;99.90;;;;;;5005705;28;20037;-43
2022/01/17 11:22:46;;;;;;;13.93;3.78;;;8.40;99.90;;;;;;5005438;28;20021;-43
2022/01/17 11:25:18;;;;;;;16.58;3.65;;;8.40;99.90;;;;;;5006690;28;20111;-43
2022/01/17 11:27:43;;;;;;;11.48;2.78;;;8.40;99.90;;;;;;5005463;28;20041;-43
2022/01/17 11:30:10;;;;;;;17.88;4.10;;;8.50;99.90;;;;;;5006015;28;20033;-43
2022/01/17 11:32:37;;;;;;;18.83;4.07;;;8.50;99.90;;;;;;5005594;28;20123;-43
2022/01/17 11:35:04;;;;;;;15.93;3.53;;;8.50;99.90;;;;;;5005374;28;20120;-42
2022/01/17 11:37:38;;;;;;;16.13;3.50;;;8.60;99.90;;;;;;5006567;28;20540;-42
2022/01/17 11:40:06;;;;;;;18.88;4.03;;;8.60;99.90;;;;;;5009070;28;20014;-43
2022/01/17 11:42:40;;;;;;;18.50;3.75;;;8.70;99.90;;;;;;5009481;28;20021;-43
2022/01/17 11:45:23;;;;;;;16.23;3.20;;;8.70;99.90;;;;;;5009578;28;20038;-43
2022/01/17 11:47:53;;;;;;;14.70;4.22;;;8.70;99.90;;;;;;5008462;28;20049;-42
2022/01/17 11:50:32;;;;;;;17.13;3.38;;;8.70;99.90;;;;;;5009512;28;20116;-44
2022/01/17 11:53:27;;;;;;;20.80;4.18;;;8.80;99.90;;;;;;5009444;28;20181;-43
2022/01/17 11:55:52;;;;;;;23.13;4.18;;;8.80;99.90;;;;;;4989105;28;20046;-43
2022/01/17 11:58:36;;;;;;;16.10;3.30;;;8.90;99.90;;;;;;5003977;28;20366;-43
2022/01/17 12:01:04;;;;;;;20.23;4.68;;;8.90;99.90;;;;;;4989197;28;20034;-46
2022/01/17 12:03:37;;;;;;;20.92;4.57;;;8.90;99.90;;;;;;4993721;28;20117;-43
2022/01/17 12:06:04;;;;;;;;;;;9.00;99.90;;;;;;5001875;28;20045;-43
2022/01/17 12:08:30;;;;;;;12.20;2.80;;;9.00;99.90;;;;;;5001957;28;19905;-43
2022/01/17 12:11:02;;;;;;;19.55;3.47;;;9.10;99.90;;;;;;5009089;28;20026;-43
2022/01/17 12:13:41;;;;;;;14.20;3.53;;;9.20;99.90;;;;;;5008823;28;20036;-43
2022/01/17 12:16:19;;;;;;;23.50;4.28;;;9.20;99.90;;;;;;5008682;28;20064;-44
2022/01/17 12:18:59;;;;;;;18.33;4.45;;;9.20;99.90;;;;;;5008351;28;20026;-42
2022/01/17 12:21:53;;;;;;;14.25;3.50;;;9.30;99.90;;;;;;5006642;28;20133;-43
2022/01/17 12:24:39;;;;;;;21.83;4.60;;;9.30;99.90;;;;;;5007750;28;20060;-44
2022/01/17 12:27:13;;;;;;;21.55;3.85;;;9.30;99.90;;;;;;5005386;28;20041;-43
2022/01/17 12:29:53;;;;;;;20.38;3.88;;;9.30;99.90;;;;;;5007541;28;20022;-44
2022/01/17 12:32:24;;;;;;;15.73;3.60;;;9.40;99.90;;;;;;5009433;28;20044;-44
2022/01/17 12:34:59;;;;;;;18.42;3.25;;;9.50;99.90;;;;;;5008278;28;20495;-43
2022/01/17 12:37:45;;;;;;;18.58;3.50;;;9.50;99.90;;;;;;5008018;28;20025;-43
2022/01/17 12:40:37;;;;;;;17.85;3.90;;;9.50;99.90;;;;;;5008912;28;20041;-43
2022/01/17 12:43:09;;;;;;;15.77;3.60;;;9.50;99.90;;;;;;5008861;28;20030;-43
2022/01/17 12:45:40;;;;;;;22.83;3.75;;;9.60;99.90;;;;;;5007415;28;20109;-44
2022/01/17 12:48:13;;;;;;;26.48;4.47;;;9.60;99.90;;;;;;4996672;28;20936;-42
2022/01/17 12:50:42;;;;;;;22.38;3.85;;;9.60;99.90;;;;;;5002323;28;20885;-42
2022/01/17 12:53:10;;;;;;;25.55;3.47;;;9.60;99.90;;;;;;5008537;28;20030;-44
2022/01/17 12:55:40;;;;;;;22.38;3.95;;;9.60;99.90;;;;;;5008039;28;20046;-43
2022/01/17 12:58:23;;;;;;;14.85;4.68;;;9.60;99.90;;;;;;5007726;28;20425;-43
2022/01/17 13:00:53;;;;;;;16.52;3.20;;;9.60;99.90;;;;;;5007766;28;20022;-43
2022/01/17 13:03:21;;;;;;;24.15;4.07;;;9.70;99.90;;;;;;5008328;28;20034;-42
2022/01/17 13:05:47;;;;;;;18.83;3.47;;;9.70;99.90;;;;;;5007188;28;20037;-42
2022/01/17 13:08:14;;;;;;;18.63;3.28;;;9.70;99.90;;;;;;5008265;28;20389;-43
2022/01/17 13:10:41;;;;;;;14.27;3.00;;;9.70;99.90;;;;;;5005730;28;20022;-43
2022/01/17 13:13:09;;;;;;;16.08;2.88;;;9.80;99.90;;;;;;5007537;28;20034;-42
2022/01/17 13:15:35;;;;;;;22.60;3.72;;;9.80;99.90;;;;;;5007550;28;20500;-43
2022/01/17 13:18:00;;;;;;;23.23;3.95;;;9.80;99.90;;;;;;5006613;28;20042;-42
2022/01/17 13:20:28;;;;;;;23.95;4.85;;;9.80;99.90;;;;;;5006853;28;20022;-44